createdAt,value
2017-03-09T17:27:48.281Z,1010.27
2017-03-09T17:28:48.265Z,1010.24
2017-03-09T17:29:48.251Z,1010.29
2017-03-09T17:30:48.236Z,1010.32
2017-03-09T17:31:48.216Z,1010.41
2017-03-09T17:32:48.201Z,1010.46
2017-03-09T17:33:48.185Z,1010.47
2017-03-09T17:34:48.168Z,1010.48
2017-03-09T17:35:48.153Z,1010.45
2017-03-09T17:36:48.136Z,1010.46
2017-03-09T17:37:48.118Z,1010.56
2017-03-09T17:38:48.103Z,1010.52
2017-03-09T17:39:48.087Z,1010.56
2017-03-09T17:40:48.071Z,1010.59
2017-03-09T17:41:48.057Z,1010.55
2017-03-09T17:42:48.038Z,1010.56
2017-03-09T17:43:48.022Z,1010.6
2017-03-09T17:44:48.004Z,1010.66
2017-03-09T17:45:47.988Z,1010.58
2017-03-09T17:46:47.974Z,1010.58
2017-03-09T17:47:47.956Z,1010.64
2017-03-09T17:48:47.939Z,1010.69
2017-03-09T17:49:47.926Z,1010.68
2017-03-09T17:50:47.907Z,1010.66
2017-03-09T17:51:47.892Z,1010.7
2017-03-09T17:52:47.874Z,1010.71
2017-03-09T17:53:47.856Z,1010.77
2017-03-09T17:54:47.841Z,1010.82
2017-03-09T17:55:47.823Z,1010.78
2017-03-09T17:56:47.808Z,1010.79
2017-03-09T17:57:47.794Z,1010.91
2017-03-09T17:58:47.774Z,1010.82
2017-03-09T17:59:47.759Z,1010.87
2017-03-09T18:00:47.742Z,1010.87
2017-03-09T18:01:47.726Z,1010.84
2017-03-09T18:02:47.710Z,1010.92
2017-03-09T18:03:47.693Z,1010.9
2017-03-09T18:04:47.675Z,1010.9
2017-03-09T18:05:47.709Z,1010.91
2017-03-09T18:06:47.645Z,1010.94
2017-03-09T18:07:47.626Z,1011
2017-03-09T18:08:47.610Z,1011
2017-03-09T18:09:47.593Z,1011.03
2017-03-09T18:10:47.576Z,1011.1
2017-03-09T18:11:47.559Z,1011.14
2017-03-09T18:12:47.549Z,1011.11
2017-03-09T18:13:47.526Z,1011.04
2017-03-09T18:14:47.517Z,1011.04
2017-03-09T18:15:47.493Z,1011.05
2017-03-09T18:16:47.477Z,1011.04
2017-03-09T18:17:47.460Z,1011.07
2017-03-09T18:18:47.441Z,1011.1
2017-03-09T18:19:47.424Z,1011.16
2017-03-09T18:20:47.409Z,1011.12
2017-03-09T18:21:47.390Z,1011.19
2017-03-09T18:22:47.375Z,1011.11
2017-03-09T18:23:47.357Z,1011.2
2017-03-09T18:24:47.343Z,1011.16
2017-03-09T18:25:47.325Z,1011.22
2017-03-09T18:26:47.308Z,1011.14
2017-03-09T18:27:47.291Z,1011.12
2017-03-09T18:28:47.275Z,1011.24
2017-03-09T18:29:47.259Z,1011.28
2017-03-09T18:30:47.242Z,1011.21
2017-03-09T18:31:47.224Z,1011.16
2017-03-09T18:32:47.207Z,1011.23
2017-03-09T18:33:47.190Z,1011.27
2017-03-09T18:34:47.175Z,1011.27
2017-03-09T18:35:47.206Z,1011.39
2017-03-09T18:36:47.139Z,1011.21
2017-03-09T18:37:47.124Z,1011.23
2017-03-09T18:38:47.114Z,1011.22
2017-03-09T18:39:47.091Z,1011.26
2017-03-09T18:40:47.073Z,1011.25
2017-03-09T18:41:47.056Z,1011.25
2017-03-09T18:42:47.041Z,1011.3
2017-03-09T18:43:47.021Z,1011.22
2017-03-09T18:44:47.009Z,1011.26
2017-03-09T18:45:46.988Z,1011.4
2017-03-09T18:46:46.973Z,1011.33
2017-03-09T18:47:46.955Z,1011.29
2017-03-09T18:48:46.938Z,1011.28
2017-03-09T18:49:46.923Z,1011.36
2017-03-09T18:50:46.907Z,1011.32
2017-03-09T18:51:46.890Z,1011.38
2017-03-09T18:52:46.880Z,1011.34
2017-03-09T18:53:46.865Z,1011.42
2017-03-09T18:54:46.842Z,1011.43
2017-03-09T18:55:46.825Z,1011.48
2017-03-09T18:56:46.806Z,1011.45
2017-03-09T18:57:46.791Z,1011.46
2017-03-09T18:58:46.773Z,1011.48
2017-03-09T18:59:46.754Z,1011.47
2017-03-09T19:00:46.740Z,1011.47
2017-03-09T19:01:46.722Z,1011.48
2017-03-09T19:02:46.707Z,1011.6
2017-03-09T19:03:46.690Z,1011.34
2017-03-09T19:04:46.674Z,1011.5
2017-03-09T19:05:46.686Z,1011.42
2017-03-09T19:06:46.638Z,1011.41
2017-03-09T19:07:46.622Z,1011.49
2017-03-09T19:08:46.605Z,1011.49
2017-03-09T19:09:46.603Z,1011.55
2017-03-09T19:10:46.573Z,1011.56
2017-03-09T19:11:46.558Z,1011.53
2017-03-09T19:12:46.536Z,1011.52
2017-03-09T19:13:46.522Z,1011.58
2017-03-09T19:14:46.506Z,1011.56
2017-03-09T19:15:46.493Z,1011.69
2017-03-09T19:16:46.490Z,1011.71
2017-03-09T19:17:46.459Z,1011.72
2017-03-09T19:18:46.438Z,1011.73
2017-03-09T19:19:46.423Z,1011.72
2017-03-09T19:20:46.406Z,1011.78
2017-03-09T19:21:46.388Z,1011.8
2017-03-09T19:22:46.372Z,1011.85
2017-03-09T19:23:46.355Z,1011.89
2017-03-09T19:24:46.340Z,1012
2017-03-09T19:25:46.318Z,1012.03
2017-03-09T19:26:46.303Z,1012.08
2017-03-09T19:27:46.286Z,1011.88
2017-03-09T19:28:46.268Z,1011.85
2017-03-09T19:29:46.253Z,1011.96
2017-03-09T19:30:46.237Z,1011.96
2017-03-09T19:31:46.222Z,1011.98
2017-03-09T19:32:46.201Z,1011.99
2017-03-09T19:33:46.184Z,1012.02
2017-03-09T19:34:46.167Z,1012.07
2017-03-09T19:35:46.150Z,1012
2017-03-09T19:36:46.133Z,1012
2017-03-09T19:37:46.119Z,1012.18
2017-03-09T19:38:46.100Z,1012.08
2017-03-09T19:39:46.083Z,1012.15
2017-03-09T19:40:46.065Z,1012.14
2017-03-09T19:41:46.052Z,1012.2
2017-03-09T19:42:46.031Z,1012.22
2017-03-09T19:43:46.013Z,1012.18
2017-03-09T19:44:45.999Z,1012.28
2017-03-09T19:45:45.983Z,1012.29
2017-03-09T19:46:45.966Z,1012.28
2017-03-09T19:47:45.950Z,1012.25
2017-03-09T19:48:45.933Z,1012.2
2017-03-09T19:49:45.921Z,1012.26
2017-03-09T19:50:45.897Z,1012.35
2017-03-09T19:51:45.884Z,1012.29
2017-03-09T19:52:45.865Z,1012.4
2017-03-09T19:53:45.846Z,1012.31
2017-03-09T19:54:45.827Z,1012.41
2017-03-09T19:55:45.814Z,1012.44
2017-03-09T19:56:45.794Z,1012.46
2017-03-09T19:57:45.780Z,1012.5
2017-03-09T19:58:45.768Z,1012.53
2017-03-09T19:59:45.742Z,1012.48
2017-03-09T20:00:45.725Z,1012.53
2017-03-09T20:01:45.708Z,1012.54
2017-03-09T20:02:45.699Z,1012.55
2017-03-09T20:03:45.679Z,1012.51
2017-03-09T20:04:45.660Z,1012.55
2017-03-09T20:05:45.646Z,1012.56
2017-03-09T20:06:45.628Z,1012.57
2017-03-09T20:07:45.610Z,1012.64
2017-03-09T20:08:45.593Z,1012.62
2017-03-09T20:09:45.577Z,1012.62
2017-03-09T20:10:45.566Z,1012.62
2017-03-09T20:11:45.557Z,1012.6
2017-03-09T20:12:45.557Z,1012.6
2017-03-09T20:13:45.515Z,1012.62
2017-03-09T20:14:45.492Z,1012.59
2017-03-09T20:15:45.471Z,1012.57
2017-03-09T20:16:45.458Z,1012.57
2017-03-09T20:17:45.439Z,1012.61
2017-03-09T20:18:45.425Z,1012.66
2017-03-09T20:19:45.408Z,1012.64
2017-03-09T20:20:45.389Z,1012.69
2017-03-09T20:21:45.372Z,1012.73
2017-03-09T20:22:45.360Z,1012.72
2017-03-09T20:23:45.342Z,1012.78
2017-03-09T20:24:45.323Z,1012.79
2017-03-09T20:25:45.306Z,1012.84
2017-03-09T20:26:45.291Z,1012.83
2017-03-09T20:27:45.273Z,1012.76
2017-03-09T20:28:45.256Z,1012.74
2017-03-09T20:29:45.242Z,1012.79
2017-03-09T20:30:45.217Z,1012.81
2017-03-09T20:31:45.206Z,1012.88
2017-03-09T20:32:45.189Z,1012.9
2017-03-09T20:33:45.168Z,1012.89
2017-03-09T20:34:45.154Z,1012.95
2017-03-09T20:35:45.136Z,1012.93
2017-03-09T20:36:45.119Z,1012.95
2017-03-09T20:37:45.108Z,1013
2017-03-09T20:38:45.086Z,1013.01
2017-03-09T20:39:45.072Z,1013.08
2017-03-09T20:40:45.055Z,1013.08
2017-03-09T20:41:45.034Z,1013.11
2017-03-09T20:42:45.024Z,1013.15
2017-03-09T20:43:45.027Z,1013.17
2017-03-09T20:44:44.983Z,1013.18
2017-03-09T20:45:44.967Z,1013.15
2017-03-09T20:46:44.952Z,1013.2
2017-03-09T20:47:44.933Z,1013.22
2017-03-09T20:48:44.921Z,1013.27
2017-03-09T20:49:44.903Z,1013.23
2017-03-09T20:50:44.882Z,1013.24
2017-03-09T20:51:44.866Z,1013.27
2017-03-09T20:52:44.871Z,1013.2
2017-03-09T20:53:44.839Z,1013.28
2017-03-09T20:54:44.816Z,1013.29
2017-03-09T20:55:44.803Z,1013.27
2017-03-09T20:56:44.783Z,1013.21
2017-03-09T20:57:44.767Z,1013.28
2017-03-09T20:58:44.748Z,1013.3
2017-03-09T20:59:44.734Z,1013.27
2017-03-09T21:00:44.713Z,1013.3
2017-03-09T21:01:44.695Z,1013.4
2017-03-09T21:02:44.681Z,1013.45
2017-03-09T21:03:44.662Z,1013.43
2017-03-09T21:04:44.645Z,1013.41
2017-03-09T21:05:44.628Z,1013.46
2017-03-09T21:06:44.615Z,1013.5
2017-03-09T21:07:44.595Z,1013.45
2017-03-09T21:08:44.579Z,1013.45
2017-03-09T21:09:44.559Z,1013.46
2017-03-09T21:10:44.542Z,1013.43
2017-03-09T21:11:44.525Z,1013.46
2017-03-09T21:12:44.508Z,1013.41
2017-03-09T21:13:44.493Z,1013.47
2017-03-09T21:14:44.479Z,1013.53
2017-03-09T21:15:44.457Z,1013.52
2017-03-09T21:16:44.444Z,1013.58
2017-03-09T21:17:44.424Z,1013.59
2017-03-09T21:18:44.409Z,1013.6
2017-03-09T21:19:44.391Z,1013.61
2017-03-09T21:20:44.371Z,1013.64
2017-03-09T21:21:44.355Z,1013.67
2017-03-09T21:22:44.336Z,1013.7
2017-03-09T21:23:44.319Z,1013.77
2017-03-09T21:24:44.303Z,1013.75
2017-03-09T21:25:44.290Z,1013.78
2017-03-09T21:26:44.271Z,1013.8
2017-03-09T21:27:44.252Z,1013.88
2017-03-09T21:28:44.235Z,1013.86
2017-03-09T21:29:44.219Z,1013.86
2017-03-09T21:30:44.204Z,1013.91
2017-03-09T21:31:44.185Z,1013.91
2017-03-09T21:32:44.209Z,1013.94
2017-03-09T21:33:44.187Z,1013.9
2017-03-09T21:34:44.130Z,1013.92
2017-03-09T21:35:44.112Z,1013.96
2017-03-09T21:36:44.094Z,1013.94
2017-03-09T21:37:44.076Z,1013.91
2017-03-09T21:38:44.063Z,1013.93
2017-03-09T21:39:44.042Z,1013.92
2017-03-09T21:40:44.025Z,1013.93
2017-03-09T21:41:44.008Z,1014.02
2017-03-09T21:42:43.992Z,1014.05
2017-03-09T21:43:43.972Z,1013.97
2017-03-09T21:44:43.956Z,1014.05
2017-03-09T21:45:43.939Z,1014.02
2017-03-09T21:46:43.923Z,1013.96
2017-03-09T21:47:44.108Z,1013.98
2017-03-09T21:48:43.888Z,1014.02
2017-03-09T21:49:43.871Z,1014.03
2017-03-09T21:50:43.855Z,1014.04
2017-03-09T21:51:43.834Z,1014.05
2017-03-09T21:52:44.069Z,1014.07
2017-03-09T21:53:43.801Z,1014.05
2017-03-09T21:54:43.783Z,1014.01
2017-03-09T21:55:43.765Z,1014.09
2017-03-09T21:56:43.749Z,1014.09
2017-03-09T21:57:43.731Z,1014.11
2017-03-09T21:58:43.714Z,1014.09
2017-03-09T21:59:43.699Z,1014.21
2017-03-09T22:00:43.681Z,1014.13
2017-03-09T22:01:43.693Z,1014.11
2017-03-09T22:02:43.645Z,1014.17
2017-03-09T22:03:43.627Z,1014.22
2017-03-09T22:04:43.609Z,1014.25
2017-03-09T22:05:43.593Z,1014.23
2017-03-09T22:06:43.575Z,1014.26
2017-03-09T22:07:43.559Z,1014.3
2017-03-09T22:08:43.541Z,1014.29
2017-03-09T22:09:43.530Z,1014.35
2017-03-09T22:10:43.507Z,1014.34
2017-03-09T22:11:43.488Z,1014.37
2017-03-09T22:12:43.472Z,1014.3
2017-03-09T22:13:43.455Z,1014.44
2017-03-09T22:14:43.437Z,1014.37
2017-03-09T22:15:43.420Z,1014.37
2017-03-09T22:16:43.403Z,1014.39
2017-03-09T22:17:43.387Z,1014.4
2017-03-09T22:18:43.370Z,1014.42
2017-03-09T22:19:43.353Z,1014.46
2017-03-09T22:20:43.335Z,1014.44
2017-03-09T22:21:43.315Z,1014.45
2017-03-09T22:22:43.300Z,1014.43
2017-03-09T22:23:43.281Z,1014.4
2017-03-09T22:24:43.264Z,1014.48
2017-03-09T22:25:43.247Z,1014.48
2017-03-09T22:26:43.229Z,1014.55
2017-03-09T22:27:43.212Z,1014.55
2017-03-09T22:28:43.195Z,1014.56
2017-03-09T22:29:43.176Z,1014.54
2017-03-09T22:30:43.159Z,1014.64
2017-03-09T22:31:43.142Z,1014.67
2017-03-09T22:32:43.125Z,1014.69
2017-03-09T22:33:43.106Z,1014.72
2017-03-09T22:34:43.094Z,1014.76
2017-03-09T22:35:43.077Z,1014.73
2017-03-09T22:36:43.055Z,1014.77
2017-03-09T22:37:43.041Z,1014.75
2017-03-09T22:38:43.025Z,1014.75
2017-03-09T22:39:43.003Z,1014.81
2017-03-09T22:40:42.987Z,1014.81
2017-03-09T22:41:42.967Z,1014.82
2017-03-09T22:42:42.951Z,1014.88
2017-03-09T22:43:42.935Z,1014.87
2017-03-09T22:44:42.918Z,1014.85
2017-03-09T22:45:42.898Z,1014.87
2017-03-09T22:46:42.879Z,1014.92
2017-03-09T22:47:42.862Z,1014.93
2017-03-09T22:48:42.848Z,1014.96
2017-03-09T22:49:42.827Z,1014.96
2017-03-09T22:50:42.816Z,1015.01
2017-03-09T22:51:42.792Z,1015.01
2017-03-09T22:52:42.773Z,1015.05
2017-03-09T22:53:42.760Z,1015.08
2017-03-09T22:54:42.759Z,1015.08
2017-03-09T22:55:42.738Z,1015.13
2017-03-09T22:56:42.708Z,1015.14
2017-03-09T22:57:42.689Z,1015.09
2017-03-09T22:58:42.673Z,1015.13
2017-03-09T22:59:42.653Z,1015.11
2017-03-09T23:00:42.635Z,1015.1
2017-03-09T23:01:42.617Z,1015.11
2017-03-09T23:02:42.596Z,1015.19
2017-03-09T23:03:42.579Z,1015.27
2017-03-09T23:04:42.768Z,1015.2
2017-03-09T23:05:42.545Z,1015.3
2017-03-09T23:06:42.530Z,1015.33
2017-03-09T23:07:42.512Z,1015.34
2017-03-09T23:08:42.493Z,1015.33
2017-03-09T23:09:42.475Z,1015.37
2017-03-09T23:10:42.460Z,1015.4
2017-03-09T23:11:42.440Z,1015.41
2017-03-09T23:12:42.424Z,1015.42
2017-03-09T23:13:42.405Z,1015.47
2017-03-09T23:14:42.386Z,1015.51
2017-03-09T23:15:42.369Z,1015.6
2017-03-09T23:16:42.352Z,1015.61
2017-03-09T23:17:42.334Z,1015.62
2017-03-09T23:18:42.314Z,1015.7
2017-03-09T23:19:42.302Z,1015.66
2017-03-09T23:20:42.283Z,1015.64
2017-03-09T23:21:42.265Z,1015.7
2017-03-09T23:22:42.247Z,1015.78
2017-03-09T23:23:42.225Z,1015.76
2017-03-09T23:24:42.212Z,1015.74
2017-03-09T23:25:42.189Z,1015.81
2017-03-09T23:26:42.176Z,1015.8
2017-03-09T23:27:42.158Z,1015.86
2017-03-09T23:28:42.140Z,1015.87
2017-03-09T23:29:42.119Z,1015.88
2017-03-09T23:30:42.155Z,1015.87
2017-03-09T23:31:42.090Z,1015.92
2017-03-09T23:32:42.068Z,1016.01
2017-03-09T23:33:42.070Z,1015.92
2017-03-09T23:34:42.033Z,1015.9
2017-03-09T23:35:42.013Z,1015.96
2017-03-09T23:36:41.996Z,1015.99
2017-03-09T23:37:41.980Z,1015.92
2017-03-09T23:38:41.958Z,1016.01
2017-03-09T23:39:41.941Z,1016
2017-03-09T23:40:41.925Z,1016.01
2017-03-09T23:41:41.906Z,1016.02
2017-03-09T23:42:41.889Z,1016.05
2017-03-09T23:43:41.869Z,1016.14
2017-03-09T23:44:41.871Z,1016.14
2017-03-09T23:45:41.835Z,1016.16
2017-03-09T23:46:41.818Z,1016.22
2017-03-09T23:47:41.801Z,1016.22
2017-03-09T23:48:41.781Z,1016.25
2017-03-09T23:49:41.767Z,1016.31
2017-03-09T23:50:41.746Z,1016.3
2017-03-09T23:51:41.728Z,1016.27
2017-03-09T23:52:41.711Z,1016.23
2017-03-09T23:53:41.692Z,1016.3
2017-03-09T23:54:41.674Z,1016.29
2017-03-09T23:55:41.656Z,1016.32
2017-03-09T23:56:41.639Z,1016.3
2017-03-09T23:57:41.619Z,1016.32
2017-03-09T23:58:41.605Z,1016.35
2017-03-09T23:59:41.584Z,1016.35
